Time;durP1;ratioP1;P1;durP2;ratioP2;P2;SDS_P1;SDS_P2;PMS_P1;PMS_P2;Temp;Humidity;BMP_temperature;BMP_pressure;BME280_temperature;BME280_humidity;BME280_pressure;Samples;Min_cycle;Max_cycle;Signal;HPM_P1;HPM_P2
2022/08/10 00:01:22;;;;;;;;;;;;;;;28.89;49.16;100997.38;5021413;28;19967;-83
2022/08/10 00:03:47;;;;;;;;;;;;;;;28.95;49.05;101002.63;5051170;28;19970;-83
2022/08/10 00:06:13;;;;;;;;;;;;;;;28.95;48.81;100996.38;5039365;28;19985;-84
2022/08/10 00:08:38;;;;;;;;;;;;;;;28.82;49.13;100993.91;5056079;28;19921;-84
2022/08/10 00:11:03;;;;;;;;;;;;;;;28.90;48.82;101001.84;5042443;28;19968;-85
2022/08/10 00:13:29;;;;;;;;;;;;;;;28.84;49.40;100999.25;5049228;28;19948;-83
2022/08/10 00:15:56;;;;;;;;;;;;;;;28.90;49.07;100992.91;5035842;28;19913;-84
2022/08/10 00:18:23;;;;;;;;;;;;;;;28.93;49.33;100984.75;5028344;28;19929;-85
2022/08/10 00:20:48;;;;;;;;;;;;;;;28.99;49.24;100992.72;5036531;28;19924;-83
2022/08/10 00:23:13;;;;;;;;;;;;;;;28.92;49.56;100977.63;5036946;28;19995;-83
2022/08/10 00:25:39;;;;;;;;;;;;;;;28.88;49.47;101000.97;5040040;28;19921;-84
2022/08/10 00:28:04;;;;;;;;;;;;;;;28.83;49.68;100986.75;5040404;28;19917;-83
2022/08/10 00:30:30;;;;;;;;;;;;;;;28.89;49.71;100989.31;5048335;28;20356;-83
2022/08/10 00:32:55;;;;;;;;;;;;;;;28.89;49.58;101000.06;5053923;28;20318;-85
2022/08/10 00:35:20;;;;;;;;;;;;;;;28.78;50.23;100984.13;5058167;28;19923;-84
2022/08/10 00:37:46;;;;;;;;;;;;;;;28.93;49.77;100985.63;5064313;28;20413;-83
2022/08/10 00:40:12;;;;;;;;;;;;;;;28.85;50.30;100990.31;5062178;28;19917;-86
2022/08/10 00:42:37;;;;;;;;;;;;;;;28.93;50.06;100988.31;5048870;28;20413;-84
2022/08/10 00:45:03;;;;;;;;;;;;;;;28.99;49.98;100988.22;5035291;28;19928;-83
2022/08/10 00:47:28;;;;;;;;;;;;;;;28.93;50.52;100982.94;5049425;28;19921;-83
2022/08/10 00:49:54;;;;;;;;;;;;;;;28.89;50.49;100985.72;5062486;28;19966;-83
2022/08/10 00:52:19;;;;;;;;;;;;;;;28.88;50.68;100990.22;5048207;28;19924;-84
2022/08/10 00:54:44;;;;;;;;;;;;;;;28.87;50.69;100996.53;5054029;28;20387;-83
2022/08/10 00:57:10;;;;;;;;;;;;;;;28.88;50.84;100990.22;5007476;28;19993;-83
2022/08/10 00:59:35;;;;;;;;;;;;;;;28.65;51.61;100995.13;5054068;28;19938;-85
2022/08/10 01:02:02;;;;;;;;;;;;;;;28.70;51.53;101003.97;5057735;28;19924;-84
2022/08/10 01:04:28;;;;;;;;;;;;;;;28.69;51.96;101004.91;5034328;28;19913;-83
2022/08/10 01:06:58;;;;;;;;;;;;;;;28.77;51.53;101001.19;5056165;28;20421;-84
2022/08/10 01:09:42;;;;;;;;;;;;;;;28.69;51.71;100978.03;5036719;28;20073;-84
2022/08/10 01:12:16;;;;;;;;;;;;;;;28.81;51.47;101005.59;5055726;28;19920;-84
2022/08/10 01:14:46;;;;;;;;;;;;;;;28.77;51.78;101001.19;5033008;28;19975;-82
2022/08/10 01:17:16;;;;;;;;;;;;;;;28.75;51.76;100989.56;5053712;28;19920;-84
2022/08/10 01:20:05;;;;;;;;;;;;;;;28.68;52.07;101001.34;5042109;28;19966;-85
2022/08/10 01:22:44;;;;;;;;;;;;;;;28.75;52.09;101000.31;5032365;28;20322;-83
2022/08/10 01:25:10;;;;;;;;;;;;;;;28.77;52.00;101002.97;5027311;28;20299;-82
2022/08/10 01:27:39;;;;;;;;;;;;;;;28.71;52.22;100993.22;5053628;28;19966;-81
2022/08/10 01:30:09;;;;;;;;;;;;;;;28.85;51.86;101001.06;5038929;28;19920;-82
2022/08/10 01:32:44;;;;;;;;;;;;;;;28.78;52.18;100985.94;5036770;28;20011;-83
2022/08/10 01:35:28;;;;;;;;;;;;;;;28.79;52.15;100982.34;5047922;28;20380;-83
2022/08/10 01:38:13;;;;;;;;;;;;;;;28.79;52.10;100990.41;5038652;28;19921;-84
2022/08/10 01:40:41;;;;;;;;;;;;;;;28.71;52.52;101000.41;5035687;28;19921;-83
2022/08/10 01:43:08;;;;;;;;;;;;;;;28.67;52.52;101001.38;5040555;28;20411;-83
2022/08/10 01:45:34;;;;;;;;;;;;;;;28.70;52.45;100999.53;5044691;28;19917;-83
2022/08/10 01:51:00;;;;;;;;;;;;;;;28.75;52.26;101000.31;5044577;28;19923;-83
2022/08/10 01:53:27;;;;;;;;;;;;;;;28.88;51.86;101002.78;5034395;28;19967;-83
2022/08/10 01:55:53;;;;;;;;;;;;;;;28.77;52.29;101003.88;5034545;28;20310;-84
2022/08/10 01:58:19;;;;;;;;;;;;;;;28.73;52.44;101003.94;5015756;28;19925;-83
2022/08/10 02:00:44;;;;;;;;;;;;;;;28.66;52.54;101015.69;5035968;28;19917;-82
2022/08/10 02:03:10;;;;;;;;;;;;;;;28.61;52.67;101008.59;5031829;28;20349;-82
2022/08/10 02:05:36;;;;;;;;;;;;;;;28.71;52.58;101009.34;5034295;28;19924;-82
2022/08/10 02:08:01;;;;;;;;;;;;;;;28.78;52.33;101010.13;5033598;28;19919;-82
2022/08/10 02:10:27;;;;;;;;;;;;;;;28.77;52.48;101001.19;5033493;28;19917;-82
2022/08/10 02:12:55;;;;;;;;;;;;;;;28.72;52.56;101011.09;5016745;28;20018;-83
2022/08/10 02:15:21;;;;;;;;;;;;;;;28.70;52.73;101004.91;5043347;28;20306;-82
2022/08/10 02:17:51;;;;;;;;;;;;;;;28.70;52.57;101004.91;5043374;28;19921;-81
2022/08/10 02:20:18;;;;;;;;;;;;;;;28.77;52.45;101000.31;5040745;28;20067;-83
2022/08/10 02:22:43;;;;;;;;;;;;;;;28.77;52.44;101005.69;5030112;28;19920;-83
2022/08/10 02:25:09;;;;;;;;;;;;;;;28.73;52.27;100998.56;5036283;28;19921;-82
2022/08/10 02:27:34;;;;;;;;;;;;;;;28.80;52.24;101005.59;5047891;28;19917;-82
2022/08/10 02:30:01;;;;;;;;;;;;;;;28.81;52.34;101002.03;5034011;28;19917;-82
2022/08/10 02:32:27;;;;;;;;;;;;;;;28.72;52.46;101004.84;5039668;28;19917;-82
2022/08/10 02:34:53;;;;;;;;;;;;;;;28.76;52.38;100995.81;5037769;28;19917;-84
2022/08/10 02:37:21;;;;;;;;;;;;;;;28.72;52.66;101016.47;5037027;28;19990;-82
2022/08/10 02:39:46;;;;;;;;;;;;;;;28.69;52.47;101008.47;5058337;28;19936;-83
2022/08/10 02:42:32;;;;;;;;;;;;;;;28.61;52.75;101003.22;5044465;28;20389;-81
2022/08/10 02:45:03;;;;;;;;;;;;;;;28.71;52.57;101012.03;5037619;28;20022;-82
2022/08/10 02:47:32;;;;;;;;;;;;;;;28.75;52.47;101011.06;5047523;28;20004;-83
2022/08/10 02:50:02;;;;;;;;;;;;;;;28.78;52.25;101013.69;5047317;28;19990;-83
2022/08/10 02:52:31;;;;;;;;;;;;;;;28.71;52.54;101013.84;5016024;28;20007;-83
2022/08/10 02:55:02;;;;;;;;;;;;;;;28.77;52.37;101013.75;5046473;28;19921;-83
2022/08/10 02:57:27;;;;;;;;;;;;;;;28.81;52.24;101013.66;5035306;28;19921;-82
2022/08/10 02:59:55;;;;;;;;;;;;;;;28.75;52.43;101018.25;5038030;28;19916;-81
2022/08/10 03:02:22;;;;;;;;;;;;;;;28.60;52.72;101020.28;5017900;28;20322;-83
2022/08/10 03:04:49;;;;;;;;;;;;;;;28.69;52.73;101029.97;5034655;28;19913;-83
2022/08/10 03:07:16;;;;;;;;;;;;;;;28.71;52.57;101030.84;5023889;28;19917;-83
2022/08/10 03:09:41;;;;;;;;;;;;;;;28.73;52.73;101038.91;5041448;28;19917;-84
2022/08/10 03:12:07;;;;;;;;;;;;;;;28.59;52.73;101028.34;5053156;28;19956;-83
2022/08/10 03:14:35;;;;;;;;;;;;;;;28.50;53.23;101037.47;5034200;28;19924;-83
2022/08/10 03:17:00;;;;;;;;;;;;;;;28.58;52.74;101034.66;5045694;28;20350;-83
2022/08/10 03:19:26;;;;;;;;;;;;;;;28.59;52.87;101040.00;5045896;28;19926;-83
2022/08/10 03:21:51;;;;;;;;;;;;;;;28.55;53.20;101037.38;5044269;28;19950;-83
2022/08/10 03:24:21;;;;;;;;;;;;;;;28.56;52.90;101048.13;5029350;28;20026;-82
2022/08/10 03:26:47;;;;;;;;;;;;;;;28.54;53.17;101046.38;5023953;28;20313;-83
2022/08/10 03:29:13;;;;;;;;;;;;;;;28.45;53.40;101041.09;5048451;28;19944;-83
2022/08/10 03:31:38;;;;;;;;;;;;;;;28.56;53.15;101040.06;5036028;28;19940;-83
2022/08/10 03:34:04;;;;;;;;;;;;;;;28.53;53.08;101042.81;5022324;28;19917;-81
2022/08/10 03:36:30;;;;;;;;;;;;;;;28.53;53.15;101036.50;5039946;28;19922;-82
2022/08/10 03:38:56;;;;;;;;;;;;;;;28.55;52.97;101040.94;5035184;28;20020;-82
2022/08/10 03:41:33;;;;;;;;;;;;;;;28.60;53.03;101041.78;5036059;28;19960;-83
2022/08/10 03:43:58;;;;;;;;;;;;;;;28.51;53.05;101039.25;5034503;28;19923;-82
2022/08/10 03:46:24;;;;;;;;;;;;;;;28.39;53.37;101042.97;5041387;28;20019;-83
2022/08/10 03:48:50;;;;;;;;;;;;;;;28.41;53.25;101038.47;5031999;28;19925;-83
2022/08/10 03:51:19;;;;;;;;;;;;;;;28.36;53.29;101040.34;5037504;28;19950;-82
2022/08/10 03:53:44;;;;;;;;;;;;;;;28.43;53.13;101039.31;5044222;28;19924;-83
2022/08/10 03:56:10;;;;;;;;;;;;;;;28.31;53.34;101042.19;5032932;28;19917;-81
2022/08/10 03:58:35;;;;;;;;;;;;;;;28.34;53.33;101038.56;5040376;28;19966;-81
2022/08/10 04:01:01;;;;;;;;;;;;;;;28.26;53.71;101041.38;5028812;28;19925;-80
2022/08/10 04:03:26;;;;;;;;;;;;;;;28.20;53.60;101036.09;5033877;28;19916;-82
2022/08/10 04:05:52;;;;;;;;;;;;;;;28.21;53.71;101036.09;5046789;28;20024;-83
2022/08/10 04:08:17;;;;;;;;;;;;;;;28.26;53.61;101044.06;5039931;28;19917;-82
2022/08/10 04:10:43;;;;;;;;;;;;;;;28.20;53.92;101046.84;5026329;28;19925;-82
2022/08/10 04:13:08;;;;;;;;;;;;;;;28.18;54.15;101045.97;5023668;28;20003;-82
2022/08/10 04:15:34;;;;;;;;;;;;;;;28.27;53.58;101044.97;5031923;28;19920;-81
2022/08/10 04:17:59;;;;;;;;;;;;;;;28.03;54.16;101047.09;5032201;28;20485;-83
2022/08/10 04:20:24;;;;;;;;;;;;;;;28.21;53.53;101046.84;5037532;28;19925;-82
2022/08/10 04:22:51;;;;;;;;;;;;;;;28.08;54.10;101055.06;5028101;28;19929;-82
2022/08/10 04:25:16;;;;;;;;;;;;;;;28.06;54.03;101043.47;5035482;28;19913;-82
2022/08/10 04:27:42;;;;;;;;;;;;;;;28.04;54.07;101043.47;5016737;28;20421;-83
2022/08/10 04:30:07;;;;;;;;;;;;;;;28.02;54.08;101040.84;5032782;28;19959;-83
2022/08/10 04:32:33;;;;;;;;;;;;;;;28.05;54.20;101052.44;5033850;28;19917;-84
2022/08/10 04:34:58;;;;;;;;;;;;;;;27.88;54.50;101036.56;5030914;28;19924;-82
2022/08/10 04:37:24;;;;;;;;;;;;;;;27.83;54.87;101036.56;5045186;28;19921;-83
2022/08/10 04:39:49;;;;;;;;;;;;;;;27.79;54.75;101040.19;5046198;28;20386;-82
2022/08/10 04:42:15;;;;;;;;;;;;;;;27.91;54.65;101049.94;5043358;28;19955;-84
2022/08/10 04:44:41;;;;;;;;;;;;;;;27.84;54.83;101042.84;5036324;28;20004;-82
2022/08/10 04:47:07;;;;;;;;;;;;;;;27.92;54.34;101044.56;5043655;28;19924;-83
2022/08/10 04:49:32;;;;;;;;;;;;;;;27.82;54.92;101037.50;5033122;28;19921;-80
2022/08/10 04:51:58;;;;;;;;;;;;;;;27.91;54.63;101039.19;5026881;28;20493;-81
2022/08/10 04:54:24;;;;;;;;;;;;;;;27.84;54.95;101034.78;5026707;28;19967;-80
2022/08/10 04:56:49;;;;;;;;;;;;;;;27.86;55.08;101038.38;5030355;28;19936;-82
2022/08/10 04:59:15;;;;;;;;;;;;;;;27.93;54.73;101038.25;5027657;28;20326;-83
2022/08/10 05:01:40;;;;;;;;;;;;;;;27.91;54.82;101044.56;5031337;28;19999;-84
2022/08/10 05:04:06;;;;;;;;;;;;;;;27.85;54.86;101044.59;5026803;28;19980;-83
2022/08/10 05:06:31;;;;;;;;;;;;;;;27.88;55.00;101036.56;5039606;28;19924;-85
2022/08/10 05:08:57;;;;;;;;;;;;;;;27.88;54.57;101034.75;5051246;28;19917;-84
2022/08/10 05:11:23;;;;;;;;;;;;;;;27.81;54.98;101046.44;5024163;28;19924;-86
2022/08/10 05:13:48;;;;;;;;;;;;;;;27.92;54.33;101054.38;5032652;28;19920;-81
2022/08/10 05:16:14;;;;;;;;;;;;;;;27.88;54.80;101048.19;5026563;28;19918;-82
2022/08/10 05:18:39;;;;;;;;;;;;;;;27.85;54.86;101052.66;5022624;28;19957;-81
2022/08/10 05:21:05;;;;;;;;;;;;;;;27.84;55.05;101043.72;5025470;28;19986;-83
2022/08/10 05:26:14;;;;;;;;;;;;;;;27.69;55.56;101033.19;5017852;28;20001;-82
2022/08/10 05:28:40;;;;;;;;;;;;;;;27.73;55.40;101059.06;5037269;28;19926;-83
2022/08/10 05:31:05;;;;;;;;;;;;;;;27.71;55.65;101039.44;5029552;28;20406;-84
2022/08/10 05:33:30;;;;;;;;;;;;;;;27.90;55.12;101049.06;5029512;28;19952;-83
2022/08/10 05:35:56;;;;;;;;;;;;;;;27.86;54.93;101044.63;5033537;28;19917;-83
2022/08/10 05:38:22;;;;;;;;;;;;;;;27.82;55.15;101049.09;5053310;28;19920;-83
2022/08/10 05:40:47;;;;;;;;;;;;;;;27.77;55.23;101042.91;5032608;28;20291;-82
2022/08/10 05:43:13;;;;;;;;;;;;;;;27.82;54.90;101045.53;5026567;28;20012;-84
2022/08/10 05:45:39;;;;;;;;;;;;;;;27.92;54.62;101052.59;5044380;28;19956;-83
2022/08/10 05:48:04;;;;;;;;;;;;;;;27.94;54.36;101045.41;5055422;28;19975;-83
2022/08/10 05:50:30;;;;;;;;;;;;;;;27.92;54.74;101041.88;5055191;28;20003;-82
2022/08/10 05:52:55;;;;;;;;;;;;;;;27.92;54.26;101055.28;5045183;28;19914;-83
2022/08/10 05:55:22;;;;;;;;;;;;;;;27.90;54.47;101056.19;5037071;28;20477;-83
2022/08/10 05:57:47;;;;;;;;;;;;;;;28.04;54.15;101051.53;5029349;28;19973;-81
2022/08/10 06:00:17;;;;;;;;;;;;;;;27.85;54.57;101048.16;5054341;28;20003;-82
2022/08/10 06:02:44;;;;;;;;;;;;;;;27.90;54.43;101051.72;5032988;28;20050;-85
2022/08/10 06:05:11;;;;;;;;;;;;;;;27.88;nan;101066.97;5030640;28;19920;-82
2022/08/10 06:07:39;;;;;;;;;;;;;;;27.92;54.31;101067.78;5025860;28;19995;-85
2022/08/10 06:10:05;;;;;;;;;;;;;;;27.96;54.02;101064.16;5035944;28;19925;-84
2022/08/10 06:12:30;;;;;;;;;;;;;;;27.91;54.14;101063.34;5036359;28;19995;-84
2022/08/10 06:14:59;;;;;;;;;;;;;;;27.85;54.26;101058.91;5047231;28;19971;-84
2022/08/10 06:17:25;;;;;;;;;;;;;;;27.90;54.58;101065.16;5042921;28;20405;-83
2022/08/10 06:19:51;;;;;;;;;;;;;;;27.94;54.29;101071.34;5048684;28;19920;-81
2022/08/10 06:22:16;;;;;;;;;;;;;;;28.04;53.75;101064.06;5036032;28;20390;-84
2022/08/10 06:24:42;;;;;;;;;;;;;;;27.92;54.23;101070.47;5029365;28;20386;-84
2022/08/10 06:27:07;;;;;;;;;;;;;;;27.95;54.03;101076.72;5045315;28;19917;-82
2022/08/10 06:29:34;;;;;;;;;;;;;;;28.02;53.72;101069.47;5050797;28;20478;-84
2022/08/10 06:32:00;;;;;;;;;;;;;;;28.03;53.64;101073.94;5049724;28;19928;-84
2022/08/10 06:34:29;;;;;;;;;;;;;;;28.11;53.46;101065.75;5035153;28;19916;-87
2022/08/10 06:36:56;;;;;;;;;;;;;;;28.14;53.50;101073.78;5012986;28;19991;-88
2022/08/10 06:39:22;;;;;;;;;;;;;;;28.01;53.77;101075.75;5027302;28;19917;-87
2022/08/10 06:41:48;;;;;;;;;;;;;;;28.07;53.33;101070.31;5023856;28;19920;-85
2022/08/10 06:44:15;;;;;;;;;;;;;;;28.03;53.53;101076.63;5037231;28;19921;-84
2022/08/10 06:46:41;;;;;;;;;;;;;;;28.09;53.36;101067.56;5052354;28;20413;-82
2022/08/10 06:49:07;;;;;;;;;;;;;;;28.09;53.68;101068.47;5032236;28;19964;-85
2022/08/10 06:51:33;;;;;;;;;;;;;;;28.12;53.34;101079.16;5018753;28;19963;-84
2022/08/10 06:54:00;;;;;;;;;;;;;;;28.16;53.51;101070.16;5019129;28;20443;-86
2022/08/10 06:56:30;;;;;;;;;;;;;;;28.13;53.58;101082.72;5044653;28;20318;-86
2022/08/10 06:59:06;;;;;;;;;;;;;;;28.12;53.20;101081.84;5046229;28;19956;-83
2022/08/10 07:01:33;;;;;;;;;;;;;;;28.18;52.94;101084.47;5027810;28;19919;-85
2022/08/10 07:04:01;;;;;;;;;;;;;;;28.26;53.17;101088.81;5022083;28;20563;-85
2022/08/10 07:06:26;;;;;;;;;;;;;;;28.31;52.95;101085.16;5040387;28;19921;-86
2022/08/10 07:08:52;;;;;;;;;;;;;;;28.35;52.75;101084.22;5041600;28;19913;-84
2022/08/10 07:11:18;;;;;;;;;;;;;;;28.29;52.71;101092.38;5010849;28;19921;-86
2022/08/10 07:13:46;;;;;;;;;;;;;;;28.27;52.14;101086.13;5024599;28;20391;-85
2022/08/10 07:16:12;;;;;;;;;;;;;;;28.28;52.37;101101.34;5018491;28;19917;-85
2022/08/10 07:18:38;;;;;;;;;;;;;;;28.21;52.42;101105.91;5031283;28;19944;-84
2022/08/10 07:21:03;;;;;;;;;;;;;;;28.28;52.93;101090.59;5027874;28;19952;-86
2022/08/10 07:23:32;;;;;;;;;;;;;;;28.27;50.87;101096.88;5028818;28;19925;-88
2022/08/10 07:26:00;;;;;;;;;;;;;;;28.30;51.01;101091.47;5018472;28;19917;-85
2022/08/10 07:28:28;;;;;;;;;;;;;;;28.30;52.27;101101.31;5015245;28;19913;-85
2022/08/10 07:30:53;;;;;;;;;;;;;;;28.24;52.75;101102.28;5030551;28;19967;-87
2022/08/10 07:33:19;;;;;;;;;;;;;;;28.12;52.89;101107.81;5013636;28;20314;-85
2022/08/10 07:35:46;;;;;;;;;;;;;;;28.21;50.82;101094.25;5029496;28;20506;-83
2022/08/10 07:38:15;;;;;;;;;;;;;;;28.14;52.70;101101.53;5039963;28;19975;-82
2022/08/10 07:40:41;;;;;;;;;;;;;;;28.20;52.14;101098.75;5025457;28;20002;-84
2022/08/10 07:43:06;;;;;;;;;;;;;;;28.18;52.44;101100.56;5013847;28;19975;-81
2022/08/10 07:45:32;;;;;;;;;;;;;;;28.24;50.85;101091.56;5038923;28;19920;-82
2022/08/10 07:47:59;;;;;;;;;;;;;;;28.18;52.73;101099.69;5025698;28;20007;-82
2022/08/10 07:50:24;;;;;;;;;;;;;;;28.17;52.01;101104.19;5047736;28;19920;-82
2022/08/10 07:52:51;;;;;;;;;;;;;;;28.14;52.05;101098.84;5041341;28;19917;-82
2022/08/10 07:55:17;;;;;;;;;;;;;;;28.22;52.05;101098.75;5045487;28;20078;-82
2022/08/10 07:57:43;;;;;;;;;;;;;;;28.15;52.17;101088.97;5035725;28;19921;-82
2022/08/10 08:00:10;;;;;;;;;;;;;;;28.16;52.57;101101.50;5023768;28;19928;-82
2022/08/10 08:02:44;;;;;;;;;;;;;;;28.16;51.50;101097.00;5041232;28;19963;-83
2022/08/10 08:05:11;;;;;;;;;;;;;;;28.13;52.59;101096.16;5041901;28;19913;-82
2022/08/10 08:07:36;;;;;;;;;;;;;;;28.23;50.68;101090.63;5029473;28;19952;-82
2022/08/10 08:10:02;;;;;;;;;;;;;;;28.20;52.35;101090.69;5023732;28;19914;-83
2022/08/10 08:12:28;;;;;;;;;;;;;;;28.07;52.79;101099.84;5019413;28;20072;-83
2022/08/10 08:14:53;;;;;;;;;;;;;;;28.15;52.38;101095.25;5020590;28;19914;-82
2022/08/10 08:17:20;;;;;;;;;;;;;;;28.19;51.66;101085.34;5047828;28;19923;-83
2022/08/10 08:19:46;;;;;;;;;;;;;;;28.19;51.45;101091.63;5022752;28;20382;-82
2022/08/10 08:22:15;;;;;;;;;;;;;;;28.16;52.01;101088.97;5050994;28;19913;-82
2022/08/10 08:24:41;;;;;;;;;;;;;;;28.16;52.12;101080.91;5027773;28;20393;-82
2022/08/10 08:27:06;;;;;;;;;;;;;;;28.18;52.45;101083.56;5046147;28;20007;-83
2022/08/10 08:29:35;;;;;;;;;;;;;;;28.12;52.19;101095.28;5031794;28;19959;-82
2022/08/10 08:32:02;;;;;;;;;;;;;;;28.13;52.22;101082.72;5030136;28;20399;-83
2022/08/10 08:34:27;;;;;;;;;;;;;;;28.14;52.40;101082.72;5030834;28;19913;-83
2022/08/10 08:36:53;;;;;;;;;;;;;;;28.04;52.45;101074.81;5039301;28;20443;-83
2022/08/10 08:39:21;;;;;;;;;;;;;;;27.95;53.28;101075.81;5033600;28;20223;-83
2022/08/10 08:41:46;;;;;;;;;;;;;;;28.05;53.05;101087.34;5034100;28;19917;-82
2022/08/10 08:44:12;;;;;;;;;;;;;;;28.00;53.57;101087.38;5051222;28;20374;-83
2022/08/10 08:46:37;;;;;;;;;;;;;;;28.10;53.04;101083.66;5034720;28;19912;-82
2022/08/10 08:49:21;;;;;;;;;;;;;;;28.07;53.34;101089.09;5061827;28;19925;-82
2022/08/10 08:52:01;;;;;;;;;;;;;;;28.13;53.15;101085.41;5044022;28;19971;-83
2022/08/10 08:54:37;;;;;;;;;;;;;;;28.11;53.36;101093.53;5050261;28;19966;-82
2022/08/10 08:57:05;;;;;;;;;;;;;;;28.10;53.38;101072.03;5052618;28;20004;-81
2022/08/10 08:59:39;;;;;;;;;;;;;;;28.08;53.30;101072.06;5019320;28;19964;-82
2022/08/10 09:02:05;;;;;;;;;;;;;;;28.15;52.92;101063.03;5045896;28;19912;-82
2022/08/10 09:04:43;;;;;;;;;;;;;;;28.18;52.95;101071.03;5051478;28;20293;-82
2022/08/10 09:07:14;;;;;;;;;;;;;;;28.23;52.75;101063.78;5026934;28;20436;-83
2022/08/10 09:09:50;;;;;;;;;;;;;;;28.15;52.77;101056.75;5046366;28;19921;-83
2022/08/10 09:12:21;;;;;;;;;;;;;;;28.20;52.80;101061.16;5042266;28;20456;-82
2022/08/10 09:14:47;;;;;;;;;;;;;;;28.21;52.82;101062.03;5027121;28;19913;-83
2022/08/10 09:17:31;;;;;;;;;;;;;;;28.21;52.87;101065.63;5051511;28;19939;-83
2022/08/10 09:20:03;;;;;;;;;;;;;;;28.22;52.67;101063.81;5046054;28;20476;-80
2022/08/10 09:22:51;;;;;;;;;;;;;;;28.27;52.50;101067.31;5045041;28;20012;-84
2022/08/10 09:25:23;;;;;;;;;;;;;;;28.20;52.82;101065.66;5000038;28;20361;-82
2022/08/10 09:27:55;;;;;;;;;;;;;;;28.21;52.93;101062.94;5018547;28;20310;-84
2022/08/10 09:30:30;;;;;;;;;;;;;;;28.23;53.15;101073.66;5050490;28;19920;-83
2022/08/10 09:33:08;;;;;;;;;;;;;;;28.26;53.03;101072.72;5054933;28;19913;-84
2022/08/10 09:35:43;;;;;;;;;;;;;;;28.15;53.30;101056.75;5032983;28;19931;-85
2022/08/10 09:38:31;;;;;;;;;;;;;;;28.23;53.36;101062.91;5048189;28;19920;-86
2022/08/10 09:40:57;;;;;;;;;;;;;;;28.26;53.17;101070.03;5049965;28;19943;-86
2022/08/10 09:43:40;;;;;;;;;;;;;;;28.21;53.29;101064.72;5040166;28;19996;-85
2022/08/10 09:46:08;;;;;;;;;;;;;;;28.27;53.24;101072.69;5031927;28;19924;-87
2022/08/10 09:48:50;;;;;;;;;;;;;;;28.30;53.31;101077.13;5042414;28;19979;-85
2022/08/10 09:51:35;;;;;;;;;;;;;;;28.28;52.94;101081.63;5049006;28;19913;-85
2022/08/10 09:54:06;;;;;;;;;;;;;;;28.27;53.37;101087.94;5030320;28;20036;-85
2022/08/10 09:56:48;;;;;;;;;;;;;;;28.26;53.57;101089.72;5053645;28;20504;-85
2022/08/10 09:59:29;;;;;;;;;;;;;;;28.28;53.19;101089.69;5048823;28;19927;-86
2022/08/10 10:01:59;;;;;;;;;;;;;;;28.25;53.08;101090.63;5031112;28;20505;-85
2022/08/10 10:04:25;;;;;;;;;;;;;;;28.29;52.89;101084.31;5032840;28;19928;-85
2022/08/10 10:06:50;;;;;;;;;;;;;;;28.32;52.70;101086.97;5048460;28;20314;-86
2022/08/10 10:09:16;;;;;;;;;;;;;;;28.28;53.32;101092.38;5045047;28;19917;-85
2022/08/10 10:12:05;;;;;;;;;;;;;;;28.38;53.10;101094.03;5042675;28;20329;-84
2022/08/10 10:17:48;;;;;;;;;;;;;;;28.36;52.74;101102.13;5041163;28;19928;-85
2022/08/10 10:20:16;;;;;;;;;;;;;;;28.35;52.86;101113.75;5042382;28;20314;-84
2022/08/10 10:22:53;;;;;;;;;;;;;;;28.32;52.81;101124.56;5059635;28;19920;-85
2022/08/10 10:25:32;;;;;;;;;;;;;;;28.29;52.93;101127.28;5049201;28;19995;-85
2022/08/10 10:28:01;;;;;;;;;;;;;;;28.38;52.56;101121.78;5016797;28;20373;-86
2022/08/10 10:30:29;;;;;;;;;;;;;;;28.39;52.54;101126.25;5036074;28;19920;-85
2022/08/10 10:33:14;;;;;;;;;;;;;;;28.38;52.28;101132.50;5041666;28;19936;-85
2022/08/10 10:35:53;;;;;;;;;;;;;;;28.40;52.33;101129.81;5047991;28;19916;-86
2022/08/10 10:38:25;;;;;;;;;;;;;;;28.25;52.14;101124.66;5035379;28;19952;-83
2022/08/10 10:41:10;;;;;;;;;;;;;;;28.33;52.28;101120.06;5037997;28;20451;-84
2022/08/10 10:43:39;;;;;;;;;;;;;;;28.35;52.31;101118.25;5069386;28;19917;-85
2022/08/10 10:46:13;;;;;;;;;;;;;;;28.43;51.59;101127.97;5067184;28;19920;-89
2022/08/10 10:48:47;;;;;;;;;;;;;;;28.39;52.11;101122.69;5061271;28;19973;-85
2022/08/10 10:51:20;;;;;;;;;;;;;;;28.38;51.61;101121.78;5059721;28;19916;-85
2022/08/10 10:53:51;;;;;;;;;;;;;;;28.29;52.41;101112.97;5058450;28;20404;-84
2022/08/10 10:56:52;;;;;;;;;;;;;;;28.34;51.97;101108.41;5056069;28;19916;-86
2022/08/10 10:59:24;;;;;;;;;;;;;;;28.34;52.09;101124.53;5004088;28;19924;-84
2022/08/10 11:01:52;;;;;;;;;;;;;;;28.37;52.14;101127.19;5031035;28;19923;-86
2022/08/10 11:04:18;;;;;;;;;;;;;;;28.42;51.99;101128.88;5056300;28;19944;-85
2022/08/10 11:06:58;;;;;;;;;;;;;;;28.39;52.10;101125.38;5044255;28;20404;-85
2022/08/10 11:09:48;;;;;;;;;;;;;;;28.40;52.12;101141.44;5041857;28;19913;-84
2022/08/10 11:12:32;;;;;;;;;;;;;;;28.39;52.04;101128.94;5027292;28;20361;-85
2022/08/10 11:15:00;;;;;;;;;;;;;;;28.40;52.03;101138.75;5048094;28;19917;-86
2022/08/10 11:17:29;;;;;;;;;;;;;;;28.51;51.55;101140.44;5049785;28;19921;-83
2022/08/10 11:19:55;;;;;;;;;;;;;;;28.42;52.22;101145.00;5049149;28;19920;-84
2022/08/10 11:22:22;;;;;;;;;;;;;;;28.43;51.98;101133.34;5052528;28;19916;-84
2022/08/10 11:24:54;;;;;;;;;;;;;;;28.46;51.35;101132.41;5051848;28;20358;-84
2022/08/10 11:27:38;;;;;;;;;;;;;;;28.49;51.12;101136.88;5031154;28;20016;-83
2022/08/10 11:30:03;;;;;;;;;;;;;;;28.50;51.06;101138.69;5053674;28;19916;-81
2022/08/10 11:32:47;;;;;;;;;;;;;;;28.52;50.97;101124.31;5062576;28;20389;-82
2022/08/10 11:35:13;;;;;;;;;;;;;;;28.46;51.73;101126.16;5057375;28;19916;-81
2022/08/10 11:37:44;;;;;;;;;;;;;;;28.52;51.01;101132.38;5037767;28;20007;-82
2022/08/10 11:40:10;;;;;;;;;;;;;;;28.41;51.45;101127.13;5053974;28;19917;-82
2022/08/10 11:42:47;;;;;;;;;;;;;;;28.49;51.10;101132.41;5064888;28;19913;-84
2022/08/10 11:45:17;;;;;;;;;;;;;;;28.56;50.81;101127.84;5053830;28;20013;-81
2022/08/10 11:47:53;;;;;;;;;;;;;;;28.59;50.72;101130.47;5057937;28;20420;-84
2022/08/10 11:50:30;;;;;;;;;;;;;;;28.58;50.67;101126.91;5059104;28;20015;-85
2022/08/10 11:52:59;;;;;;;;;;;;;;;28.48;51.19;101130.59;5062800;28;19916;-85
2022/08/10 11:55:26;;;;;;;;;;;;;;;28.38;50.75;101132.50;5049085;28;19916;-86
2022/08/10 11:57:53;;;;;;;;;;;;;;;28.40;50.68;101125.31;5045768;28;19921;-85
2022/08/10 12:00:19;;;;;;;;;;;;;;;28.52;50.57;101120.72;5034441;28;19977;-84
2022/08/10 12:02:58;;;;;;;;;;;;;;;28.45;51.25;101127.97;5062714;28;19921;-85
2022/08/10 12:05:33;;;;;;;;;;;;;;;28.51;51.29;101119.84;5044542;28;20322;-85
2022/08/10 12:07:59;;;;;;;;;;;;;;;28.38;51.21;101124.44;5037325;28;19932;-85
2022/08/10 12:10:25;;;;;;;;;;;;;;;28.40;51.04;101128.00;5024554;28;19916;-85
2022/08/10 12:13:14;;;;;;;;;;;;;;;28.48;50.40;101124.34;5028226;28;19971;-85
2022/08/10 12:16:00;;;;;;;;;;;;;;;28.47;51.07;101111.81;5030269;28;19917;-85
2022/08/10 12:18:32;;;;;;;;;;;;;;;28.52;50.19;101118.06;5045073;28;19933;-86
2022/08/10 12:21:00;;;;;;;;;;;;;;;28.51;50.63;101122.53;5031336;28;20375;-84
2022/08/10 12:23:33;;;;;;;;;;;;;;;28.46;50.93;101118.09;5042614;28;19921;-83
2022/08/10 12:26:17;;;;;;;;;;;;;;;28.41;50.44;101123.53;5033899;28;19967;-85
2022/08/10 12:29:15;;;;;;;;;;;;;;;28.40;50.66;101114.56;5051431;28;19920;-84
2022/08/10 12:31:59;;;;;;;;;;;;;;;28.40;50.86;101102.94;5007372;28;20574;-85
2022/08/10 12:34:36;;;;;;;;;;;;;;;28.44;50.38;101104.69;5052794;28;19917;-84
2022/08/10 12:37:06;;;;;;;;;;;;;;;28.42;50.80;101107.38;5059982;28;19971;-86
2022/08/10 12:39:36;;;;;;;;;;;;;;;28.34;50.77;101106.63;5042103;28;19928;-84
2022/08/10 12:42:04;;;;;;;;;;;;;;;28.38;50.77;101112.81;5049371;28;19921;-85
2022/08/10 12:44:32;;;;;;;;;;;;;;;28.38;50.40;101105.66;5017910;28;20054;-86
2022/08/10 12:47:01;;;;;;;;;;;;;;;28.40;50.25;101100.25;5035857;28;19917;-85
2022/08/10 12:49:30;;;;;;;;;;;;;;;28.43;50.54;101094.88;5037090;28;19967;-84
2022/08/10 12:51:58;;;;;;;;;;;;;;;28.39;50.72;101103.88;5058047;28;20080;-85
2022/08/10 12:54:24;;;;;;;;;;;;;;;28.42;50.90;101099.31;5046006;28;20337;-84